Terminal Aerodrome Forecast
Issued by NWS

Home | Current Version | Previous Version | Text Only | Print | Product List | Glossary On
Versions: 1 2 3 4 5 6 7 8 9 10 11 12 13 14 15 16 17 18 19 20 21 22 23
000
FTUS42 KGSP 291700
TAFHKY
TAF
KHKY 291734Z 2918/3018 07004KT P6SM SCT017
     FM292100 11004KT P6SM SCT060
     FM300000 00000KT P6SM SCT060
     FM301000 00000KT 4SM BR FEW050
      TEMPO 3010/3013 2SM BR BKN009
     FM301300 00000KT P6SM FEW050=

USA.gov is the U.S. government's official web portal to all federal, state and local government web resources and services.